
Distance (Route):
Temperature : 23.0°C
Humidity : 44.9%
Pressure : 0hPa| Receiver | Frames | First received | Last received |
|---|---|---|---|
| LZ4TU-5 | 134 | 2026-08-31 11:20:03 | 2026-08-31 12:55:57 |
| Receiver | Date | Latitude | Longitude | Direction | Speed | Altitude | Climb | Temperature | Humidity | Pressure | Voltage | Killtimer | Uptime | BKT | XDATA |
|---|---|---|---|---|---|---|---|---|---|---|---|---|---|---|---|
| LZ4TU-5 | 2026-08-31 12:55:57 | 44.11115 | 22.89811 | 296° | 16km/h | 1151m | -14.2m/s | 23.0°C | 44.9% | 0hPa | 0V | 00:00:00 | 00:00:00 | 00:00:00 | |
| LZ4TU-5 | 2026-08-31 12:55:53 | 44.11109 | 22.89836 | 295° | 18km/h | 1205m | -13.3m/s | 22.4°C | 45.7% | 0hPa | 0V | 00:00:00 | 00:00:00 | 00:00:00 | |
| LZ4TU-5 | 2026-08-31 12:55:48 | 44.11099 | 22.89866 | 301° | 20km/h | 1264m | -12.9m/s | 21.9°C | 46.5% | 0hPa | 0V | 00:00:00 | 00:00:00 | 00:00:00 | |
| LZ4TU-5 | 2026-08-31 12:55:43 | 44.11085 | 22.89898 | 304° | 20km/h | 1332m | -13.5m/s | 21.3°C | 47.6% | 0hPa | 0V | 00:00:00 | 00:00:00 | 00:00:00 | |
| LZ4TU-5 | 2026-08-31 12:55:38 | 44.11069 | 22.89928 | 309° | 20km/h | 1401m | -13.2m/s | 20.7°C | 48.6% | 0hPa | 0V | 00:00:00 | 00:00:00 | 00:00:00 | |
| LZ4TU-5 | 2026-08-31 12:55:34 | 44.11056 | 22.89950 | 305° | 20km/h | 1458m | -13.7m/s | 20.2°C | 49.7% | 0hPa | 0V | 00:00:00 | 00:00:00 | 00:00:00 | |
| LZ4TU-5 | 2026-08-31 12:55:29 | 44.11042 | 22.89978 | 305° | 20km/h | 1529m | -14.4m/s | 19.5°C | 51.3% | 0hPa | 0V | 00:00:00 | 00:00:00 | 00:00:00 | |
| LZ4TU-5 | 2026-08-31 12:55:25 | 44.11030 | 22.89998 | 307° | 16km/h | 1589m | -14.5m/s | 18.9°C | 52.6% | 0hPa | 0V | 00:00:00 | 00:00:00 | 00:00:00 | |
| LZ4TU-5 | 2026-08-31 12:55:21 | 44.11021 | 22.90020 | 305° | 18km/h | 1639m | -14.6m/s | 18.4°C | 53.5% | 0hPa | 0V | 00:00:00 | 00:00:00 | 00:00:00 | |
| LZ4TU-5 | 2026-08-31 12:55:16 | 44.11008 | 22.90043 | 310° | 15km/h | 1713m | -14.1m/s | 17.7°C | 54.0% | 0hPa | 0V | 00:00:00 | 00:00:00 | 00:00:00 | |
| LZ4TU-5 | 2026-08-31 12:55:11 | 44.10995 | 22.90063 | 320° | 13km/h | 1789m | -15.1m/s | 17.3°C | 52.5% | 0hPa | 0V | 00:00:00 | 00:00:00 | 00:00:00 | |
| LZ4TU-5 | 2026-08-31 12:55:06 | 44.10982 | 22.90074 | 331° | 11km/h | 1865m | -14.4m/s | 16.9°C | 48.1% | 0hPa | 0V | 00:00:00 | 00:00:00 | 00:00:00 | |
| LZ4TU-5 | 2026-08-31 12:55:01 | 44.10974 | 22.90078 | 1° | 5km/h | 1936m | -14.6m/s | 16.9°C | 39.8% | 0hPa | 0V | 00:00:00 | 00:00:00 | 00:00:00 | |
| LZ4TU-5 | 2026-08-31 12:54:57 | 44.10969 | 22.90079 | 344° | 4km/h | 1992m | -14.4m/s | 16.7°C | 34.4% | 0hPa | 0V | 00:00:00 | 00:00:00 | 00:00:00 | |
| LZ4TU-5 | 2026-08-31 12:54:52 | 44.10966 | 22.90080 | 0° | 0km/h | 2068m | -14.4m/s | 16.0°C | 34.5% | 0hPa | 0V | 00:00:00 | 00:00:00 | 00:00:00 | |
| LZ4TU-5 | 2026-08-31 12:54:47 | 44.10966 | 22.90082 | 141° | 7km/h | 2142m | -14.6m/s | 16.2°C | 28.7% | 0hPa | 0V | 00:00:00 | 00:00:00 | 00:00:00 | |
| LZ4TU-5 | 2026-08-31 12:54:43 | 44.10973 | 22.90073 | 135° | 13km/h | 2203m | -15.8m/s | 16.0°C | 28.9% | 0hPa | 0V | 00:00:00 | 00:00:00 | 00:00:00 | |
| LZ4TU-5 | 2026-08-31 12:54:38 | 44.10987 | 22.90053 | 127° | 16km/h | 2270m | -14.1m/s | 15.4°C | 53.1% | 0hPa | 0V | 00:00:00 | 00:00:00 | 00:00:00 | |
| LZ4TU-5 | 2026-08-31 12:54:33 | 44.10997 | 22.90028 | 114° | 16km/h | 2346m | -15.6m/s | 14.7°C | 57.4% | 0hPa | 0V | 00:00:00 | 00:00:00 | 00:00:00 | |
| LZ4TU-5 | 2026-08-31 12:54:28 | 44.11003 | 22.90001 | 111° | 16km/h | 2422m | -15.3m/s | 14.0°C | 59.4% | 0hPa | 0V | 00:00:00 | 00:00:00 | 00:00:00 | |
| LZ4TU-5 | 2026-08-31 12:54:23 | 44.11011 | 22.89974 | 111° | 16km/h | 2497m | -14.5m/s | 13.3°C | 61.7% | 0hPa | 0V | 00:00:00 | 00:00:00 | 00:00:00 | |
| LZ4TU-5 | 2026-08-31 12:54:18 | 44.11018 | 22.89948 | 110° | 18km/h | 2568m | -15.0m/s | 12.6°C | 63.8% | 0hPa | 0V | 00:00:00 | 00:00:00 | 00:00:00 | |
| LZ4TU-5 | 2026-08-31 12:54:14 | 44.11024 | 22.89924 | 111° | 18km/h | 2630m | -15.0m/s | 12.1°C | 65.5% | 0hPa | 0V | 00:00:00 | 00:00:00 | 00:00:00 | |
| LZ4TU-5 | 2026-08-31 12:54:10 | 44.11029 | 22.89899 | 107° | 16km/h | 2692m | -15.3m/s | 11.6°C | 66.4% | 0hPa | 0V | 00:00:00 | 00:00:00 | 00:00:00 | |
| LZ4TU-5 | 2026-08-31 12:54:06 | 44.11033 | 22.89870 | 95° | 18km/h | 2771m | -15.1m/s | 11.1°C | 67.7% | 0hPa | 0V | 00:00:00 | 00:00:00 | 00:00:00 | |
| LZ4TU-5 | 2026-08-31 12:49:05 | 44.11520 | 22.87688 | 104° | 40km/h | 7963m | -19.7m/s | -22.9°C | 16.7% | 0hPa | 0V | 00:00:00 | 00:00:00 | 00:00:00 | |
| LZ4TU-5 | 2026-08-31 12:49:00 | 44.11532 | 22.87622 | 108° | 35km/h | 8062m | -19.5m/s | -23.2°C | 10.7% | 0hPa | 0V | 00:00:00 | 00:00:00 | 00:00:00 | |
| LZ4TU-5 | 2026-08-31 12:47:01 | 44.12525 | 22.86049 | 138° | 82km/h | 10518m | -22.5m/s | -42.4°C | 34.4% | 0hPa | 0V | 00:00:00 | 00:00:00 | 00:00:00 | |
| LZ4TU-5 | 2026-08-31 12:46:57 | 44.12585 | 22.85972 | 138° | 82km/h | 10608m | -23.2m/s | -42.9°C | 35.9% | 0hPa | 0V | 00:00:00 | 00:00:00 | 00:00:00 | |
| LZ4TU-5 | 2026-08-31 12:45:07 | 44.14154 | 22.83846 | 141° | 80km/h | 13246m | -24.9m/s | -59.0°C | 5.3% | 0hPa | 0V | 00:00:00 | 00:00:00 | 00:00:00 | |
| LZ4TU-5 | 2026-08-31 12:44:59 | 44.14270 | 22.83710 | 140° | 66km/h | 13446m | -25.4m/s | -59.1°C | 3.0% | 0hPa | 0V | 00:00:00 | 00:00:00 | 00:00:00 | |
| LZ4TU-5 | 2026-08-31 12:44:55 | 44.14329 | 22.83641 | 137° | 57km/h | 13566m | -25.4m/s | -59.8°C | 2.0% | 0hPa | 0V | 00:00:00 | 00:00:00 | 00:00:00 | |
| LZ4TU-5 | 2026-08-31 12:43:04 | 44.14710 | 22.82284 | 97° | 15km/h | 16682m | -31.4m/s | -60.6°C | 0.0% | 0hPa | 0V | 00:00:00 | 00:00:00 | 00:00:00 | |
| LZ4TU-5 | 2026-08-31 12:42:59 | 44.14710 | 22.82264 | 76° | 16km/h | 16807m | -31.8m/s | -60.0°C | 0.0% | 0hPa | 0V | 00:00:00 | 00:00:00 | 00:00:00 | |
| LZ4TU-5 | 2026-08-31 12:40:43 | 44.14469 | 22.81944 | 40° | 7km/h | 22521m | -52.3m/s | -52.5°C | 0.0% | 0hPa | 0V | 00:00:00 | 00:00:00 | 00:00:00 | |
| LZ4TU-5 | 2026-08-31 12:40:38 | 44.14460 | 22.81940 | 7° | 5km/h | 22735m | -53.7m/s | -52.4°C | 0.0% | 0hPa | 0V | 00:00:00 | 00:00:00 | 00:00:00 | |
| LZ4TU-5 | 2026-08-31 12:38:28 | 44.14313 | 22.81856 | 287° | 11km/h | 31023m | -75.5m/s | -40.2°C | 0.0% | 0hPa | 0V | 00:00:00 | 00:00:00 | 00:00:00 | |
| LZ4TU-5 | 2026-08-31 12:38:23 | 44.14319 | 22.81880 | 229° | 20km/h | 31365m | -54.7m/s | -40.5°C | 0.0% | 0hPa | 0V | 00:00:00 | 00:00:00 | 00:00:00 | |
| LZ4TU-5 | 2026-08-31 12:36:31 | 44.14099 | 22.81832 | 329° | 22km/h | 30794m | 6.1m/s | -42.1°C | 0.0% | 0hPa | 0V | 00:00:00 | 00:00:00 | 00:00:00 | |
| LZ4TU-5 | 2026-08-31 12:36:26 | 44.14099 | 22.81813 | 84° | 35km/h | 30755m | 9.3m/s | -42.6°C | 0.0% | 0hPa | 0V | 00:00:00 | 00:00:00 | 00:00:00 | |
| LZ4TU-5 | 2026-08-31 12:34:21 | 44.13660 | 22.81733 | 288° | 15km/h | 29849m | 8.9m/s | -43.1°C | 0.0% | 0hPa | 0V | 00:00:00 | 00:00:00 | 00:00:00 | |
| LZ4TU-5 | 2026-08-31 12:34:16 | 44.13631 | 22.81764 | 357° | 27km/h | 29810m | 5.5m/s | -43.2°C | 0.0% | 0hPa | 0V | 00:00:00 | 00:00:00 | 00:00:00 | |
| LZ4TU-5 | 2026-08-31 12:32:19 | 44.13377 | 22.82047 | 306° | 33km/h | 28927m | 9.3m/s | -44.7°C | 0.0% | 0hPa | 0V | 00:00:00 | 00:00:00 | 00:00:00 | |
| LZ4TU-5 | 2026-08-31 12:32:14 | 44.13337 | 22.82061 | 17° | 13km/h | 28892m | 8.5m/s | -44.7°C | 0.0% | 0hPa | 0V | 00:00:00 | 00:00:00 | 00:00:00 | |
| LZ4TU-5 | 2026-08-31 12:30:26 | 44.13253 | 22.82505 | 138° | 24km/h | 28155m | 5.8m/s | -44.9°C | 0.0% | 0hPa | 0V | 00:00:00 | 00:00:00 | 00:00:00 | |
| LZ4TU-5 | 2026-08-31 12:30:21 | 44.13260 | 22.82496 | 15° | 13km/h | 28121m | 8.6m/s | -44.8°C | 0.0% | 0hPa | 0V | 00:00:00 | 00:00:00 | 00:00:00 | |
| LZ4TU-5 | 2026-08-31 12:28:36 | 44.13256 | 22.82353 | 151° | 2km/h | 27369m | 6.4m/s | -45.7°C | 0.0% | 0hPa | 0V | 00:00:00 | 00:00:00 | 00:00:00 | |
| LZ4TU-5 | 2026-08-31 12:28:33 | 44.13266 | 22.82344 | 142° | 18km/h | 27339m | 8.7m/s | -45.7°C | 0% | 0hPa | 0V | 00:00:00 | 00:00:00 | 00:00:00 | |
| LZ4TU-5 | 2026-08-31 12:26:47 | 44.13153 | 22.82186 | 186° | 20km/h | 26624m | 8.1m/s | -47.4°C | 0.0% | 0hPa | 0V | 00:00:00 | 00:00:00 | 00:00:00 | |
| LZ4TU-5 | 2026-08-31 12:24:58 | 44.13281 | 22.81788 | 157° | 20km/h | 25897m | 7.6m/s | -47.3°C | 0.0% | 0hPa | 0V | 00:00:00 | 00:00:00 | 00:00:00 | |
| LZ4TU-5 | 2026-08-31 12:24:53 | 44.13287 | 22.81751 | 104° | 40km/h | 25864m | 7.3m/s | -47.2°C | 0.0% | 0hPa | 0V | 00:00:00 | 00:00:00 | 00:00:00 | |
| LZ4TU-5 | 2026-08-31 12:23:06 | 44.13050 | 22.81225 | 69° | 9km/h | 25108m | 8.0m/s | -49.5°C | 0.0% | 0hPa | 0V | 00:00:00 | 00:00:00 | 00:00:00 | |
| LZ4TU-5 | 2026-08-31 12:23:01 | 44.13045 | 22.81225 | 305° | 13km/h | 25076m | 5.8m/s | -49.5°C | 0.0% | 0hPa | 0V | 00:00:00 | 00:00:00 | 00:00:00 | |
| LZ4TU-5 | 2026-08-31 12:21:17 | 44.13086 | 22.81109 | 137° | 11km/h | 24383m | 5.0m/s | -50.5°C | 0.0% | 0hPa | 0V | 00:00:00 | 00:00:00 | 00:00:00 | |
| LZ4TU-5 | 2026-08-31 12:21:12 | 44.13079 | 22.81089 | 36° | 18km/h | 24347m | 8.6m/s | -50.8°C | 0.0% | 0hPa | 0V | 00:00:00 | 00:00:00 | 00:00:00 | |
| LZ4TU-5 | 2026-08-31 12:19:19 | 44.12687 | 22.80819 | 0° | 0km/h | 23617m | 8.6m/s | -51.9°C | 0.0% | 0hPa | 0V | 00:00:00 | 00:00:00 | 00:00:00 | |
| LZ4TU-5 | 2026-08-31 12:19:14 | 44.12683 | 22.80820 | 57° | 18km/h | 23585m | 5.5m/s | -51.9°C | 0.0% | 0hPa | 0V | 00:00:00 | 00:00:00 | 00:00:00 | |
| LZ4TU-5 | 2026-08-31 12:17:30 | 44.12495 | 22.81095 | 187° | 9km/h | 22885m | 8.1m/s | -51.8°C | 0.0% | 0hPa | 0V | 00:00:00 | 00:00:00 | 00:00:00 | |
| LZ4TU-5 | 2026-08-31 12:17:25 | 44.12500 | 22.81094 | 107° | 13km/h | 22855m | 3.9m/s | -52.0°C | 0.0% | 0hPa | 0V | 00:00:00 | 00:00:00 | 00:00:00 | |
| LZ4TU-5 | 2026-08-31 12:17:20 | 44.12495 | 22.81077 | 0° | 0km/h | 22821m | 8.8m/s | -52.2°C | 0.0% | 0hPa | 0V | 00:00:00 | 00:00:00 | 00:00:00 | |
| LZ4TU-5 | 2026-08-31 12:15:37 | 44.12328 | 22.81080 | 242° | 22km/h | 22181m | 4.8m/s | -53.6°C | 0.0% | 0hPa | 0V | 00:00:00 | 00:00:00 | 00:00:00 | |
| LZ4TU-5 | 2026-08-31 12:15:32 | 44.12329 | 22.81115 | 338° | 20km/h | 22150m | 9.2m/s | -53.7°C | 0% | 0hPa | 0V | 00:00:00 | 00:00:00 | 00:00:00 | |
| LZ4TU-5 | 2026-08-31 12:13:52 | 44.12007 | 22.81199 | 304° | 20km/h | 21504m | 9.6m/s | -54.3°C | 0.0% | 0hPa | 0V | 00:00:00 | 00:00:00 | 00:00:00 | |
| LZ4TU-5 | 2026-08-31 12:13:47 | 44.12005 | 22.81220 | 325° | 11km/h | 21474m | 6.8m/s | -54.3°C | 0.0% | 0hPa | 0V | 00:00:00 | 00:00:00 | 00:00:00 | |
| LZ4TU-5 | 2026-08-31 12:12:09 | 44.11849 | 22.81447 | 7° | 15km/h | 20835m | 7.4m/s | -54.2°C | 0.0% | 0hPa | 0V | 00:00:00 | 00:00:00 | 00:00:00 | |
| LZ4TU-5 | 2026-08-31 12:12:04 | 44.11823 | 22.81458 | 331° | 24km/h | 20802m | 5.6m/s | -54.0°C | 0.0% | 0hPa | 0V | 00:00:00 | 00:00:00 | 00:00:00 | |
| LZ4TU-5 | 2026-08-31 12:10:24 | 44.11663 | 22.81475 | 64° | 18km/h | 20183m | 5.4m/s | -55.8°C | 0.0% | 0hPa | 0V | 00:00:00 | 00:00:00 | 00:00:00 | |
| LZ4TU-5 | 2026-08-31 12:10:19 | 44.11643 | 22.81445 | 38° | 15km/h | 20150m | 8.1m/s | -55.8°C | 0.0% | 0hPa | 0V | 00:00:00 | 00:00:00 | 00:00:00 | |
| LZ4TU-5 | 2026-08-31 12:08:38 | 44.11400 | 22.81246 | 17° | 7km/h | 19529m | 5.0m/s | -55.7°C | 0.0% | 0hPa | 0V | 00:00:00 | 00:00:00 | 00:00:00 | |
| LZ4TU-5 | 2026-08-31 12:08:33 | 44.11386 | 22.81226 | 70° | 24km/h | 19496m | 5.3m/s | -55.7°C | 0.0% | 0hPa | 0V | 00:00:00 | 00:00:00 | 00:00:00 | |
| LZ4TU-5 | 2026-08-31 12:06:54 | 44.11238 | 22.81062 | 60° | 9km/h | 18870m | 4.7m/s | -56.8°C | 0.0% | 0hPa | 0V | 00:00:00 | 00:00:00 | 00:00:00 | |
| LZ4TU-5 | 2026-08-31 12:06:49 | 44.11227 | 22.81061 | 352° | 13km/h | 18839m | 3.2m/s | -56.8°C | 0.0% | 0hPa | 0V | 00:00:00 | 00:00:00 | 00:00:00 | |
| LZ4TU-5 | 2026-08-31 12:05:11 | 44.11125 | 22.80610 | 21° | 9km/h | 18242m | 4.0m/s | -57.3°C | 0.0% | 0hPa | 0V | 00:00:00 | 00:00:00 | 00:00:00 | |
| LZ4TU-5 | 2026-08-31 12:03:30 | 44.11216 | 22.80342 | 63° | 20km/h | 17624m | 7.3m/s | -57.0°C | 0.0% | 0hPa | 0V | 00:00:00 | 00:00:00 | 00:00:00 | |
| LZ4TU-5 | 2026-08-31 12:03:25 | 44.11204 | 22.80305 | 84° | 29km/h | 17592m | 4.7m/s | -56.9°C | 0.0% | 0hPa | 0V | 00:00:00 | 00:00:00 | 00:00:00 | |
| LZ4TU-5 | 2026-08-31 12:01:47 | 44.10803 | 22.79425 | 48° | 33km/h | 16998m | 7.6m/s | -59.2°C | 0.0% | 0hPa | 0V | 00:00:00 | 00:00:00 | 00:00:00 | |
| LZ4TU-5 | 2026-08-31 12:01:43 | 44.10789 | 22.79401 | 35° | 13km/h | 16974m | 6.5m/s | -59.1°C | 0.0% | 0hPa | 0V | 00:00:00 | 00:00:00 | 00:00:00 | |
| LZ4TU-5 | 2026-08-31 12:00:06 | 44.10805 | 22.78912 | 91° | 38km/h | 16384m | 7.9m/s | -60.2°C | 0.6% | 0hPa | 0V | 00:00:00 | 00:00:00 | 00:00:00 | |
| LZ4TU-5 | 2026-08-31 12:00:02 | 44.10812 | 22.78876 | 111° | 16km/h | 16359m | 5.7m/s | -60.1°C | 0.8% | 0hPa | 0V | 00:00:00 | 00:00:00 | 00:00:00 | |
| LZ4TU-5 | 2026-08-31 11:58:18 | 44.11060 | 22.77708 | 102° | 58km/h | 15751m | 4.2m/s | -59.9°C | 2.1% | 0hPa | 0V | 00:00:00 | 00:00:00 | 00:00:00 | |
| LZ4TU-5 | 2026-08-31 11:58:13 | 44.11070 | 22.77625 | 86° | 46km/h | 15719m | 7.1m/s | -59.7°C | 2.2% | 0hPa | 0V | 00:00:00 | 00:00:00 | 00:00:00 | |
| LZ4TU-5 | 2026-08-31 11:56:33 | 44.11111 | 22.76475 | 14° | 15km/h | 15103m | 5.3m/s | -60.1°C | 3.5% | 0hPa | 0V | 00:00:00 | 00:00:00 | 00:00:00 | |
| LZ4TU-5 | 2026-08-31 11:56:28 | 44.11098 | 22.76437 | 80° | 29km/h | 15069m | 5.5m/s | -60.0°C | 3.7% | 0hPa | 0V | 00:00:00 | 00:00:00 | 00:00:00 | |
| LZ4TU-5 | 2026-08-31 11:56:23 | 44.11109 | 22.76394 | 124° | 24km/h | 15037m | 7.4m/s | -59.9°C | 0% | 0hPa | 0V | 00:00:00 | 00:00:00 | 00:00:00 | |
| LZ4TU-5 | 2026-08-31 11:54:38 | 44.11443 | 22.75300 | 131° | 37km/h | 14399m | 5.8m/s | -58.7°C | 10.0% | 0hPa | 0V | 00:00:00 | 00:00:00 | 00:00:00 | |
| LZ4TU-5 | 2026-08-31 11:54:33 | 44.11456 | 22.75254 | 112° | 42km/h | 14369m | 5.5m/s | -58.6°C | 10.5% | 0hPa | 0V | 00:00:00 | 00:00:00 | 00:00:00 | |
| LZ4TU-5 | 2026-08-31 11:52:55 | 44.12288 | 22.73784 | 133° | 57km/h | 13789m | 7.2m/s | -60.3°C | 15.6% | 0hPa | 0V | 00:00:00 | 00:00:00 | 00:00:00 | |
| LZ4TU-5 | 2026-08-31 11:52:51 | 44.12321 | 22.73724 | 145° | 60km/h | 13768m | 4.8m/s | -60.5°C | 16.0% | 0hPa | 0V | 00:00:00 | 00:00:00 | 00:00:00 | |
| LZ4TU-5 | 2026-08-31 11:51:09 | 44.13665 | 22.72094 | 128° | 84km/h | 13133m | 8.1m/s | -58.4°C | 22.8% | 0hPa | 0V | 00:00:00 | 00:00:00 | 00:00:00 | |
| LZ4TU-5 | 2026-08-31 11:51:04 | 44.13736 | 22.71976 | 141° | 84km/h | 13097m | 8.4m/s | -58.2°C | 23.3% | 0hPa | 0V | 00:00:00 | 00:00:00 | 00:00:00 | |
| LZ4TU-5 | 2026-08-31 11:49:28 | 44.15072 | 22.70160 | 127° | 64km/h | 12497m | 4.9m/s | -57.8°C | 33.8% | 0hPa | 0V | 00:00:00 | 00:00:00 | 00:00:00 | |
| LZ4TU-5 | 2026-08-31 11:49:24 | 44.15111 | 22.70089 | 140° | 71km/h | 12475m | 4.8m/s | -57.7°C | 34.2% | 0hPa | 0V | 00:00:00 | 00:00:00 | 00:00:00 | |
| LZ4TU-5 | 2026-08-31 11:47:46 | 44.16490 | 22.68185 | 124° | 84km/h | 11826m | 7.1m/s | -53.2°C | 38.2% | 0hPa | 0V | 00:00:00 | 00:00:00 | 00:00:00 | |
| LZ4TU-5 | 2026-08-31 11:47:42 | 44.16562 | 22.68082 | 144° | 110km/h | 11799m | 6.1m/s | -53.0°C | 0% | 0hPa | 0V | 00:00:00 | 00:00:00 | 00:00:00 | |
| LZ4TU-5 | 2026-08-31 11:46:04 | 44.18008 | 22.66177 | 149° | 68km/h | 11161m | 6.2m/s | -47.9°C | 29.6% | 0hPa | 0V | 00:00:00 | 00:00:00 | 00:00:00 | |
| LZ4TU-5 | 2026-08-31 11:46:00 | 44.18066 | 22.66103 | 133° | 91km/h | 11136m | 6.1m/s | -47.8°C | 29.6% | 0hPa | 0V | 00:00:00 | 00:00:00 | 00:00:00 | |
| LZ4TU-5 | 2026-08-31 11:44:18 | 44.19590 | 22.64148 | 136° | 60km/h | 10518m | 9.1m/s | -42.9°C | 24.0% | 0hPa | 0V | 00:00:00 | 00:00:00 | 00:00:00 | |
| LZ4TU-5 | 2026-08-31 11:44:13 | 44.19673 | 22.64080 | 156° | 93km/h | 10484m | 5.4m/s | -42.7°C | 23.7% | 0hPa | 0V | 00:00:00 | 00:00:00 | 00:00:00 | |
| LZ4TU-5 | 2026-08-31 11:42:31 | 44.20918 | 22.62434 | 138° | 68km/h | 9879m | 7.2m/s | -37.7°C | 23.3% | 0hPa | 0V | 00:00:00 | 00:00:00 | 00:00:00 | |
| LZ4TU-5 | 2026-08-31 11:42:27 | 44.20971 | 22.62360 | 134° | 66km/h | 9853m | 6.5m/s | -37.4°C | 23.3% | 0hPa | 0V | 00:00:00 | 00:00:00 | 00:00:00 | |
| LZ4TU-5 | 2026-08-31 11:40:49 | 44.21931 | 22.61142 | 134° | 47km/h | 9253m | 7.4m/s | -32.3°C | 15.5% | 0hPa | 0V | 00:00:00 | 00:00:00 | 00:00:00 | |
| LZ4TU-5 | 2026-08-31 11:40:45 | 44.21975 | 22.61099 | 154° | 38km/h | 9224m | 6.9m/s | -32.0°C | 14.5% | 0hPa | 0V | 00:00:00 | 00:00:00 | 00:00:00 | |
| LZ4TU-5 | 2026-08-31 11:39:15 | 44.22593 | 22.60201 | 153° | 24km/h | 8669m | 5.5m/s | -27.7°C | 11.1% | 0hPa | 0V | 00:00:00 | 00:00:00 | 00:00:00 | |
| LZ4TU-5 | 2026-08-31 11:39:10 | 44.22612 | 22.60131 | 120° | 53km/h | 8635m | 5.1m/s | -27.5°C | 0% | 0hPa | 0V | 00:00:00 | 00:00:00 | 00:00:00 | |
| LZ4TU-5 | 2026-08-31 11:36:42 | 44.22964 | 22.58397 | 99° | 46km/h | 7750m | 6.7m/s | -21.5°C | 17.2% | 0hPa | 0V | 00:00:00 | 00:00:00 | 00:00:00 | |
| LZ4TU-5 | 2026-08-31 11:35:21 | 44.23324 | 22.57548 | 87° | 42km/h | 7284m | 6.7m/s | -17.8°C | 21.4% | 0hPa | 0V | 00:00:00 | 00:00:00 | 00:00:00 | |
| LZ4TU-5 | 2026-08-31 11:35:17 | 44.23345 | 22.57500 | 165° | 35km/h | 7259m | 5.2m/s | -17.6°C | 0% | 0hPa | 0V | 00:00:00 | 00:00:00 | 00:00:00 | |
| LZ4TU-5 | 2026-08-31 11:34:05 | 44.23715 | 22.56930 | 113° | 33km/h | 6838m | 5.6m/s | -13.8°C | 17.2% | 0hPa | 0V | 00:00:00 | 00:00:00 | 00:00:00 | |
| LZ4TU-5 | 2026-08-31 11:34:01 | 44.23753 | 22.56884 | 145° | 51km/h | 6817m | 3.9m/s | -13.6°C | 18.4% | 0hPa | 0V | 00:00:00 | 00:00:00 | 00:00:00 | |
| LZ4TU-5 | 2026-08-31 11:32:47 | 44.24026 | 22.56358 | 161° | 27km/h | 6377m | 4.6m/s | -10.4°C | 6.6% | 0hPa | 0V | 00:00:00 | 00:00:00 | 00:00:00 | |
| LZ4TU-5 | 2026-08-31 11:32:42 | 44.24045 | 22.56348 | 127° | 20km/h | 6353m | 5.9m/s | -10.3°C | 0% | 0hPa | 0V | 00:00:00 | 00:00:00 | 00:00:00 | |
| LZ4TU-5 | 2026-08-31 11:31:30 | 44.24278 | 22.55769 | 79° | 26km/h | 5944m | 5.1m/s | -7.8°C | 7.4% | 0hPa | 0V | 00:00:00 | 00:00:00 | 00:00:00 | |
| LZ4TU-5 | 2026-08-31 11:31:25 | 44.24279 | 22.55714 | 130° | 31km/h | 5920m | 5.1m/s | -7.7°C | 7.4% | 0hPa | 0V | 00:00:00 | 00:00:00 | 00:00:00 | |
| LZ4TU-5 | 2026-08-31 11:30:12 | 44.24403 | 22.55380 | 38° | 15km/h | 5481m | 5.8m/s | -5.1°C | 11.1% | 0hPa | 0V | 00:00:00 | 00:00:00 | 00:00:00 | |
| LZ4TU-5 | 2026-08-31 11:30:07 | 44.24399 | 22.55376 | 70° | 7km/h | 5445m | 7.1m/s | -4.8°C | 11.2% | 0hPa | 0V | 00:00:00 | 00:00:00 | 00:00:00 | |
| LZ4TU-5 | 2026-08-31 11:28:55 | 44.24357 | 22.55171 | 79° | 16km/h | 5007m | 6.2m/s | -4.1°C | 23.2% | 0hPa | 0V | 00:00:00 | 00:00:00 | 00:00:00 | |
| LZ4TU-5 | 2026-08-31 11:28:50 | 44.24360 | 22.55147 | 28° | 13km/h | 4976m | 7.1m/s | -4.3°C | 0% | 0hPa | 0V | 00:00:00 | 00:00:00 | 00:00:00 | |
| LZ4TU-5 | 2026-08-31 11:27:36 | 44.24373 | 22.54826 | 162° | 13km/h | 4533m | 4.9m/s | -1.1°C | 34.5% | 0hPa | 0V | 00:00:00 | 00:00:00 | 00:00:00 | |
| LZ4TU-5 | 2026-08-31 11:27:31 | 44.24358 | 22.54826 | 45° | 22km/h | 4503m | 5.9m/s | -1.0°C | 39.8% | 0hPa | 0V | 00:00:00 | 00:00:00 | 00:00:00 | |
| LZ4TU-5 | 2026-08-31 11:26:17 | 44.24389 | 22.54210 | 83° | 38km/h | 4047m | 5.2m/s | 1.7°C | 58.7% | 0hPa | 0V | 00:00:00 | 00:00:00 | 00:00:00 | |
| LZ4TU-5 | 2026-08-31 11:26:12 | 44.24403 | 22.54160 | 85° | 20km/h | 4019m | 5.9m/s | 2.0°C | 58.4% | 0hPa | 0V | 00:00:00 | 00:00:00 | 00:00:00 | |
| LZ4TU-5 | 2026-08-31 11:26:07 | 44.24389 | 22.54095 | 85° | 31km/h | 3990m | 7.0m/s | 2.1°C | 59.0% | 0hPa | 0V | 00:00:00 | 00:00:00 | 00:00:00 | |
| LZ4TU-5 | 2026-08-31 11:25:01 | 44.24509 | 22.53568 | 105° | 16km/h | 3600m | 6.0m/s | 4.7°C | 56.6% | 0hPa | 0V | 00:00:00 | 00:00:00 | 00:00:00 | |
| LZ4TU-5 | 2026-08-31 11:24:56 | 44.24519 | 22.53541 | 108° | 16km/h | 3569m | 6.6m/s | 5.0°C | 55.8% | 0hPa | 0V | 00:00:00 | 00:00:00 | 00:00:00 | |
| LZ4TU-5 | 2026-08-31 11:23:49 | 44.24596 | 22.53202 | 113° | 20km/h | 3146m | 6.9m/s | 7.7°C | 64.3% | 0hPa | 0V | 00:00:00 | 00:00:00 | 00:00:00 | |
| LZ4TU-5 | 2026-08-31 11:23:44 | 44.24599 | 22.53176 | 78° | 11km/h | 3114m | 6.6m/s | 7.8°C | 66.1% | 0hPa | 0V | 00:00:00 | 00:00:00 | 00:00:00 | |
| LZ4TU-5 | 2026-08-31 11:22:38 | 44.24643 | 22.52834 | 101° | 13km/h | 2697m | 6.3m/s | 10.7°C | 65.9% | 0hPa | 0V | 00:00:00 | 00:00:00 | 00:00:00 | |
| LZ4TU-5 | 2026-08-31 11:22:33 | 44.24641 | 22.52803 | 125° | 22km/h | 2667m | 6.5m/s | 10.9°C | 0% | 0hPa | 0V | 00:00:00 | 00:00:00 | 00:00:00 | |
| LZ4TU-5 | 2026-08-31 11:21:28 | 44.24669 | 22.52484 | 119° | 7km/h | 2256m | 6.9m/s | 14.7°C | 53.5% | 0hPa | 0V | 00:00:00 | 00:00:00 | 00:00:00 | |
| LZ4TU-5 | 2026-08-31 11:21:23 | 44.24677 | 22.52464 | 126° | 15km/h | 2223m | 5.9m/s | 15.0°C | 51.8% | 0hPa | 0V | 00:00:00 | 00:00:00 | 00:00:00 | |
| LZ4TU-5 | 2026-08-31 11:20:17 | 44.24639 | 22.52373 | 354° | 16km/h | 1798m | 6.2m/s | 16.6°C | 48.5% | 0hPa | 0V | 00:00:00 | 00:00:00 | 00:00:00 | |
| LZ4TU-5 | 2026-08-31 11:20:13 | 44.24625 | 22.52381 | 320° | 18km/h | 1773m | 6.0m/s | 16.8°C | 48.6% | 0hPa | 0V | 00:00:00 | 00:00:00 | 00:00:00 | |
| LZ4TU-5 | 2026-08-31 11:20:07 | 44.24607 | 22.52396 | 8° | 11km/h | 1734m | 6.8m/s | 17.1°C | 48.3% | 0hPa | 0V | 00:00:00 | 00:00:00 | 00:00:00 | |
| LZ4TU-5 | 2026-08-31 11:20:03 | 44.24589 | 22.52394 | 340° | 22km/h | 1709m | 7.0m/s | 17.2°C | 48.4% | 0hPa | 0V | 00:00:00 | 00:00:00 | 00:00:00 |